Time,TemperatureF,DewpointF,PressureIn,WindDirection,WindDirectionDegrees,WindSpeedMPH,WindSpeedGustMPH,Humidity,HourlyPrecipIn,Conditions,Clouds,dailyrainin,SoftwareType,DateUTC
2013-06-30 00:02:00,62.0,35.0,-100.00,ESE,116,3.0,5.0,37,0.00,,,0.00,,2013-06-30 07:02:00,
2013-06-30 00:12:00,62.0,35.0,-100.00,ESE,116,3.0,5.0,37,0.00,,,0.00,,2013-06-30 07:12:00,
2013-06-30 00:44:00,61.0,35.0,-100.00,SE,130,2.0,4.0,37,0.00,,,0.00,,2013-06-30 07:44:00,
2013-06-30 00:53:00,61.0,35.0,-100.00,SE,130,2.0,4.0,37,0.00,,,0.00,,2013-06-30 07:53:00,
2013-06-30 01:02:00,61.0,35.0,-100.00,SE,130,2.0,4.0,37,0.00,,,0.00,,2013-06-30 08:02:00,
2013-06-30 01:11:00,61.0,35.0,-100.00,SE,130,2.0,4.0,37,0.00,,,0.00,,2013-06-30 08:11:00,
2013-06-30 01:42:00,61.0,35.0,-100.00,SE,129,2.0,4.0,37,0.00,,,0.00,,2013-06-30 08:42:00,
2013-06-30 01:53:00,61.0,35.0,-100.00,SE,129,2.0,4.0,37,0.00,,,0.00,,2013-06-30 08:53:00,
2013-06-30 02:01:00,61.0,35.0,-100.00,SE,129,2.0,4.0,37,0.00,,,0.00,,2013-06-30 09:01:00,
2013-06-30 02:11:00,61.0,35.0,-100.00,SE,129,2.0,4.0,37,0.00,,,0.00,,2013-06-30 09:11:00,
2013-06-30 02:43:00,59.0,33.0,-100.00,ESE,116,2.0,5.0,38,0.00,,,0.00,,2013-06-30 09:43:00,
2013-06-30 02:53:00,59.0,33.0,-100.00,ESE,116,2.0,5.0,38,0.00,,,0.00,,2013-06-30 09:53:00,
2013-06-30 03:02:00,59.0,33.0,-100.00,ESE,116,2.0,5.0,38,0.00,,,0.00,,2013-06-30 10:02:00,
2013-06-30 03:11:00,59.0,33.0,-100.00,ESE,116,2.0,5.0,38,0.00,,,0.00,,2013-06-30 10:11:00,
2013-06-30 03:43:00,60.0,36.0,-100.00,SE,129,3.0,4.0,40,0.00,,,0.00,,2013-06-30 10:43:00,
2013-06-30 03:53:00,60.0,36.0,-100.00,SE,129,3.0,4.0,40,0.00,,,0.00,,2013-06-30 10:53:00,
2013-06-30 04:02:00,60.0,36.0,-100.00,SE,129,3.0,4.0,40,0.00,,,0.00,,2013-06-30 11:02:00,
2013-06-30 04:11:00,60.0,36.0,-100.00,SE,129,3.0,4.0,40,0.00,,,0.00,,2013-06-30 11:11:00,
2013-06-30 04:43:00,59.0,35.0,-100.00,SSW,195,1.0,4.0,41,0.00,,,0.00,,2013-06-30 11:43:00,
2013-06-30 04:53:00,59.0,35.0,-100.00,SSW,195,1.0,4.0,41,0.00,,,0.00,,2013-06-30 11:53:00,
2013-06-30 05:01:00,59.0,35.0,-100.00,SSW,195,1.0,4.0,41,0.00,,,0.00,,2013-06-30 12:01:00,
2013-06-30 05:11:00,59.0,35.0,-100.00,SSW,195,1.0,4.0,41,0.00,,,0.00,,2013-06-30 12:11:00,
2013-06-30 05:43:00,56.0,34.0,-100.00,ESE,120,2.0,4.0,44,0.00,,,0.00,,2013-06-30 12:43:00,
2013-06-30 05:52:00,56.0,34.0,-100.00,ESE,120,2.0,4.0,44,0.00,,,0.00,,2013-06-30 12:52:00,
2013-06-30 06:02:00,56.0,34.0,-100.00,ESE,120,2.0,4.0,44,0.00,,,0.00,,2013-06-30 13:02:00,
2013-06-30 06:12:00,56.0,34.0,-100.00,ESE,120,2.0,4.0,44,0.00,,,0.00,,2013-06-30 13:12:00,
2013-06-30 06:44:00,58.0,37.0,-100.00,East,99,1.0,7.0,46,0.00,,,0.00,,2013-06-30 13:44:00,
2013-06-30 06:53:00,58.0,37.0,-100.00,East,99,1.0,7.0,46,0.00,,,0.00,,2013-06-30 13:53:00,
2013-06-30 07:02:00,58.0,37.0,-100.00,East,99,1.0,7.0,46,0.00,,,0.00,,2013-06-30 14:02:00,
2013-06-30 07:11:00,58.0,37.0,-100.00,East,99,1.0,7.0,46,0.00,,,0.00,,2013-06-30 14:11:00,
2013-06-30 09:01:00,84.0,40.0,-100.00,WSW,244,2.0,6.0,21,-99.99,,,0.00,,2013-06-30 16:01:00,
2013-06-30 09:11:00,84.0,40.0,-100.00,WSW,244,2.0,6.0,21,-99.99,,,0.00,,2013-06-30 16:11:00,
2013-06-30 09:44:00,89.0,38.0,-100.00,West,269,5.0,11.0,17,0.00,,,0.00,,2013-06-30 16:44:00,
2013-06-30 09:53:00,89.0,38.0,-100.00,West,269,5.0,11.0,17,0.00,,,0.00,,2013-06-30 16:53:00,
2013-06-30 10:01:00,89.0,38.0,-100.00,West,269,5.0,11.0,17,0.00,,,0.00,,2013-06-30 17:01:00,
2013-06-30 10:11:00,89.0,38.0,-100.00,West,269,5.0,11.0,17,0.00,,,0.00,,2013-06-30 17:11:00,
2013-06-30 10:43:00,90.0,38.0,-100.00,NW,314,8.0,16.0,16,0.00,,,0.00,,2013-06-30 17:43:00,
2013-06-30 10:52:00,90.0,38.0,-100.00,NW,314,8.0,16.0,16,0.00,,,0.00,,2013-06-30 17:52:00,
2013-06-30 11:01:00,90.0,38.0,-100.00,NW,314,8.0,16.0,16,0.00,,,0.00,,2013-06-30 18:01:00,
2013-06-30 11:12:00,90.0,38.0,-100.00,NW,314,8.0,16.0,16,0.00,,,0.00,,2013-06-30 18:12:00,
2013-06-30 11:43:00,91.0,39.0,-100.00,WNW,298,9.0,16.0,16,0.00,,,0.00,,2013-06-30 18:43:00,
2013-06-30 11:53:00,91.0,39.0,-100.00,WNW,298,9.0,16.0,16,0.00,,,0.00,,2013-06-30 18:53:00,
2013-06-30 12:01:00,91.0,39.0,-100.00,WNW,298,9.0,16.0,16,0.00,,,0.00,,2013-06-30 19:01:00,
2013-06-30 12:11:00,91.0,39.0,-100.00,WNW,298,9.0,16.0,16,0.00,,,0.00,,2013-06-30 19:11:00,
2013-06-30 12:43:00,93.0,38.0,-100.00,WSW,255,6.0,17.0,15,0.00,,,0.00,,2013-06-30 19:43:00,
2013-06-30 12:53:00,93.0,38.0,-100.00,WSW,255,6.0,17.0,15,0.00,,,0.00,,2013-06-30 19:53:00,
2013-06-30 13:01:00,93.0,38.0,-100.00,WSW,255,6.0,17.0,15,0.00,,,0.00,,2013-06-30 20:01:00,
2013-06-30 13:11:00,93.0,38.0,-100.00,WSW,255,6.0,17.0,15,0.00,,,0.00,,2013-06-30 20:11:00,
2013-06-30 13:42:00,85.0,34.0,-100.00,SE,131,10.0,19.0,16,0.00,,,0.00,,2013-06-30 20:42:00,
2013-06-30 13:52:00,85.0,34.0,-100.00,SE,131,10.0,19.0,16,0.00,,,0.00,,2013-06-30 20:52:00,
2013-06-30 14:01:00,85.0,34.0,-100.00,SE,131,10.0,19.0,16,0.00,,,0.00,,2013-06-30 21:01:00,
2013-06-30 14:11:00,85.0,34.0,-100.00,SE,131,10.0,19.0,16,0.00,,,0.00,,2013-06-30 21:11:00,
2013-06-30 14:43:00,78.0,38.0,-100.00,SE,130,10.0,26.0,24,0.00,,,0.00,,2013-06-30 21:43:00,
2013-06-30 14:53:00,78.0,38.0,-100.00,SE,130,10.0,26.0,24,0.00,,,0.00,,2013-06-30 21:53:00,
2013-06-30 15:01:00,78.0,38.0,-100.00,SE,130,10.0,26.0,24,0.00,,,0.00,,2013-06-30 22:01:00,
2013-06-30 15:11:00,78.0,38.0,-100.00,SE,130,10.0,26.0,24,0.00,,,0.00,,2013-06-30 22:11:00,
2013-06-30 15:43:00,89.0,44.0,-100.00,WSW,243,4.0,18.0,21,0.00,,,0.00,,2013-06-30 22:43:00,
2013-06-30 15:53:00,89.0,44.0,-100.00,WSW,243,4.0,18.0,21,0.00,,,0.00,,2013-06-30 22:53:00,
2013-06-30 16:01:00,89.0,44.0,-100.00,WSW,243,4.0,18.0,21,0.00,,,0.00,,2013-06-30 23:01:00,
2013-06-30 16:11:00,89.0,44.0,-100.00,WSW,243,4.0,18.0,21,0.00,,,0.00,,2013-06-30 23:11:00,
2013-06-30 16:44:00,87.0,37.0,-100.00,SW,228,6.0,15.0,17,0.00,,,0.00,,2013-06-30 23:44:00,
2013-06-30 16:53:00,87.0,37.0,-100.00,SW,228,6.0,15.0,17,0.00,,,0.00,,2013-06-30 23:53:00,
2013-06-30 17:01:00,87.0,37.0,-100.00,SW,228,6.0,15.0,17,0.00,,,0.00,,2013-07-01 00:01:00,
2013-06-30 17:11:00,87.0,37.0,-100.00,SW,228,6.0,15.0,17,0.00,,,0.00,,2013-07-01 00:11:00,
2013-06-30 17:42:00,85.0,41.0,-100.00,WSW,254,10.0,22.0,21,0.00,,,-99.99,,2013-07-01 00:42:00,
2013-06-30 17:52:00,85.0,41.0,-100.00,WSW,254,10.0,22.0,21,0.00,,,-99.99,,2013-07-01 00:52:00,
2013-06-30 18:01:00,85.0,41.0,-100.00,WSW,254,10.0,22.0,21,0.00,,,-99.99,,2013-07-01 01:01:00,
2013-06-30 18:11:00,85.0,41.0,-100.00,WSW,254,10.0,22.0,21,0.00,,,-99.99,,2013-07-01 01:11:00,
2013-06-30 18:43:00,82.0,42.0,-100.00,WSW,243,7.0,20.0,24,0.00,,,0.00,,2013-07-01 01:43:00,
2013-06-30 18:52:00,82.0,42.0,-100.00,WSW,243,7.0,20.0,24,0.00,,,0.00,,2013-07-01 01:52:00,
2013-06-30 19:02:00,82.0,42.0,-100.00,WSW,243,7.0,20.0,24,0.00,,,0.00,,2013-07-01 02:02:00,
2013-06-30 19:11:00,82.0,42.0,-100.00,WSW,243,7.0,20.0,24,0.00,,,0.00,,2013-07-01 02:11:00,
2013-06-30 19:44:00,77.0,40.0,-100.00,West,270,3.0,15.0,27,0.00,,,0.00,,2013-07-01 02:44:00,
2013-06-30 19:54:00,77.0,40.0,-100.00,West,270,3.0,15.0,27,0.00,,,0.00,,2013-07-01 02:54:00,
2013-06-30 20:01:00,77.0,40.0,-100.00,West,270,3.0,15.0,27,0.00,,,0.00,,2013-07-01 03:01:00,
2013-06-30 20:11:00,77.0,40.0,-100.00,West,270,3.0,15.0,27,0.00,,,0.00,,2013-07-01 03:11:00,
2013-06-30 20:43:00,70.0,39.0,-100.00,ESE,118,3.0,5.0,32,0.00,,,0.00,,2013-07-01 03:43:00,
2013-06-30 20:52:00,70.0,39.0,-100.00,ESE,118,3.0,5.0,32,0.00,,,0.00,,2013-07-01 03:52:00,
2013-06-30 21:01:00,70.0,39.0,-100.00,ESE,118,3.0,5.0,32,0.00,,,0.00,,2013-07-01 04:01:00,
2013-06-30 21:11:00,70.0,39.0,-100.00,ESE,118,3.0,5.0,32,0.00,,,0.00,,2013-07-01 04:11:00,
2013-06-30 21:43:00,69.0,37.0,-100.00,SW,218,3.0,11.0,31,0.00,,,0.00,,2013-07-01 04:43:00,
2013-06-30 21:53:00,69.0,37.0,-100.00,SW,218,3.0,11.0,31,0.00,,,0.00,,2013-07-01 04:53:00,
2013-06-30 22:01:00,69.0,37.0,-100.00,SW,218,3.0,11.0,31,0.00,,,0.00,,2013-07-01 05:01:00,
2013-06-30 22:11:00,69.0,37.0,-100.00,SW,218,3.0,11.0,31,0.00,,,0.00,,2013-07-01 05:11:00,
2013-06-30 22:42:00,64.0,39.0,-100.00,ESE,120,3.0,5.0,39,0.00,,,0.00,,2013-07-01 05:42:00,
2013-06-30 22:52:00,64.0,39.0,-100.00,ESE,120,3.0,5.0,39,0.00,,,0.00,,2013-07-01 05:52:00,
2013-06-30 23:02:00,64.0,39.0,-100.00,ESE,120,3.0,5.0,39,0.00,,,0.00,,2013-07-01 06:02:00,
2013-06-30 23:12:00,64.0,39.0,-100.00,ESE,120,3.0,5.0,39,0.00,,,0.00,,2013-07-01 06:12:00,
2013-06-30 23:43:00,61.0,37.0,-100.00,ESE,112,1.0,4.0,41,0.00,,,0.00,,2013-07-01 06:43:00,
2013-06-30 23:53:00,61.0,37.0,-100.00,ESE,112,1.0,4.0,41,0.00,,,0.00,,2013-07-01 06:53:00,